Time;durP1;ratioP1;P1;durP2;ratioP2;P2;SDS_P1;SDS_P2;PMS_P1;PMS_P2;Temp;Humidity;BMP_temperature;BMP_pressure;BME280_temperature;BME280_humidity;BME280_pressure;Samples;Min_cycle;Max_cycle;Signal;HPM_P1;HPM_P2
2023/06/09 00:00:59;;;;;;;24.93;12.53;;;;;;;39.60;37.57;101264.91;6186194;23;20522;-92
2023/06/09 00:03:26;;;;;;;27.57;13.70;;;;;;;39.69;37.54;101284.78;6185001;23;20392;-89
2023/06/09 00:05:55;;;;;;;18.77;13.30;;;;;;;39.72;37.10;101286.88;6184193;23;20391;-90
2023/06/09 00:08:22;;;;;;;21.77;12.73;;;;;;;39.71;37.63;101277.09;6185715;23;20474;-92
2023/06/09 00:10:52;;;;;;;21.60;13.13;;;;;;;39.66;37.31;101271.81;6184353;23;20411;-90
2023/06/09 00:13:20;;;;;;;25.93;14.77;;;;;;;39.55;37.50;101256.06;6186676;23;20897;-90
2023/06/09 00:15:46;;;;;;;29.40;14.83;;;;;;;39.59;37.55;101251.59;6185746;23;20376;-90
2023/06/09 00:18:15;;;;;;;22.50;14.10;;;;;;;39.59;37.46;101257.81;6184561;23;20395;-90
2023/06/09 00:20:45;;;;;;;25.27;14.00;;;;;;;39.61;37.53;101250.22;6185769;23;20440;-91
2023/06/09 00:23:13;;;;;;;22.80;13.03;;;;;;;39.68;37.60;101257.94;6186424;23;20726;-91
2023/06/09 00:25:40;;;;;;;28.47;13.27;;;;;;;39.66;37.46;101250.09;6161247;23;20734;-91
2023/06/09 00:28:09;;;;;;;27.37;13.37;;;;;;;39.75;37.15;101250.16;6159307;23;20416;-90
2023/06/09 00:30:38;;;;;;;24.13;12.53;;;;;;;39.60;37.08;101218.75;6185517;23;20404;-91
2023/06/09 00:33:04;;;;;;;18.67;7.53;;;;;;;39.74;36.01;101229.53;6137875;23;20403;-92
2023/06/09 00:35:31;;;;;;;16.80;7.93;;;;;;;39.79;36.35;101234.84;6186519;23;20937;-89
2023/06/09 00:38:00;;;;;;;22.50;6.53;;;;;;;39.66;35.91;101209.38;6186243;23;20384;-92
2023/06/09 00:40:27;;;;;;;16.93;6.00;;;;;;;39.83;35.59;101224.16;6183280;23;20432;-92
2023/06/09 00:42:55;;;;;;;16.97;5.17;;;;;;;39.89;34.94;101223.69;6184922;23;20388;-91
2023/06/09 00:45:23;;;;;;;17.13;5.23;;;;;;;39.86;35.21;101210.75;6184262;23;20384;-89
2023/06/09 00:47:57;;;;;;;15.03;4.80;;;;;;;39.89;34.77;101204.69;6184336;23;20471;-89
2023/06/09 00:50:23;;;;;;;14.13;4.23;;;;;;;39.99;35.21;101217.22;6161322;23;20430;-87
2023/06/09 00:52:59;;;;;;;14.50;5.90;;;;;;;39.90;35.11;101214.47;6186076;23;20384;-86
2023/06/09 00:55:33;;;;;;;16.13;5.10;;;;;;;39.97;34.51;101219.44;6161694;23;20395;-88
2023/06/09 00:58:04;;;;;;;14.67;7.13;;;;;;;39.95;34.08;101211.59;6185439;23;20384;-91
2023/06/09 01:00:35;;;;;;;14.97;4.70;;;;;;;39.96;33.85;101202.34;6184798;23;20877;-90
2023/06/09 01:03:02;;;;;;;14.47;5.77;;;;;;;39.91;33.68;101194.34;6184979;23;20456;-89
2023/06/09 01:05:36;;;;;;;12.67;4.37;;;;;;;39.97;32.76;101203.16;6184768;23;20388;-92
2023/06/09 01:08:25;;;;;;;9.80;4.37;;;;;;;40.04;32.68;101211.69;6161488;23;20951;-92
2023/06/09 01:11:02;;;;;;;12.97;3.97;;;;;;;40.07;32.72;101208.31;6184679;23;20421;-89
2023/06/09 01:13:55;;;;;;;14.90;6.23;;;;;;;40.05;33.42;101196.97;6184663;23;20518;-92
2023/06/09 01:16:41;;;;;;;15.90;7.23;;;;;;;39.92;34.94;101189.69;6184216;23;20384;-92
2023/06/09 01:19:20;;;;;;;24.27;10.20;;;;;;;39.99;35.07;101200.91;6185028;23;20423;-91
2023/06/09 01:21:50;;;;;;;25.80;9.47;;;;;;;39.91;35.20;101193.53;6185356;23;20399;-87
2023/06/09 01:24:55;;;;;;;15.53;10.93;;;;;;;39.92;35.82;101200.56;6182233;23;20468;-88
2023/06/09 01:27:24;;;;;;;18.47;11.90;;;;;;;39.89;36.04;101201.97;6183902;23;20422;-90
2023/06/09 01:30:04;;;;;;;24.67;11.87;;;;;;;39.72;36.61;101185.59;6184531;23;20458;-91
2023/06/09 01:32:39;;;;;;;19.03;13.10;;;;;;;39.76;36.42;101187.38;6185154;23;20492;-91
2023/06/09 01:35:06;;;;;;;26.10;12.67;;;;;;;39.80;36.72;101184.84;6183766;23;20431;-89
2023/06/09 01:37:32;;;;;;;15.13;10.93;;;;;;;39.78;36.92;101184.38;6184209;23;20442;-90
2023/06/09 01:39:59;;;;;;;27.37;16.10;;;;;;;39.75;36.94;101171.41;6184020;23;20482;-89
2023/06/09 01:42:25;;;;;;;26.93;14.17;;;;;;;39.68;36.95;101169.13;6184030;23;20383;-91
2023/06/09 01:44:55;;;;;;;29.30;16.30;;;;;;;39.65;37.90;101167.00;6184656;23;20879;-92
2023/06/09 01:47:21;;;;;;;30.27;17.47;;;;;;;39.72;37.92;101180.97;6183059;23;20392;-93
2023/06/09 01:50:02;;;;;;;24.30;15.47;;;;;;;39.58;37.74;101174.78;6186672;23;20424;-92
2023/06/09 01:53:02;;;;;;;27.63;15.37;;;;;;;39.59;38.46;101179.09;6186223;23;20379;-91
2023/06/09 01:55:44;;;;;;;23.23;18.60;;;;;;;39.42;38.54;101158.09;6185334;23;20479;-92
2023/06/09 01:58:17;;;;;;;27.13;18.87;;;;;;;39.52;38.32;101167.06;6180673;23;20396;-92
2023/06/09 02:00:47;;;;;;;21.00;16.53;;;;;;;39.50;38.67;101168.19;6185037;23;20435;-90
2023/06/09 02:03:20;;;;;;;28.83;16.73;;;;;;;39.51;38.06;101168.97;6184711;23;20408;-91
2023/06/09 02:05:47;;;;;;;30.73;17.93;;;;;;;39.45;38.38;101162.88;6184759;23;20467;-89
2023/06/09 02:08:13;;;;;;;23.00;16.23;;;;;;;39.44;38.37;101168.63;6184030;23;20490;-89
2023/06/09 02:10:40;;;;;;;27.13;18.53;;;;;;;39.43;38.49;101165.09;6183805;23;20743;-88
2023/06/09 02:13:18;;;;;;;26.90;18.13;;;;;;;39.43;38.60;101167.81;6183923;23;20443;-88
2023/06/09 02:15:45;;;;;;;23.90;14.57;;;;;;;39.43;38.42;101169.75;6184646;23;20408;-88
2023/06/09 02:18:20;;;;;;;28.50;16.00;;;;;;;39.38;38.84;101162.50;6184616;23;20380;-93
2023/06/09 02:20:49;;;;;;;35.87;17.00;;;;;;;39.43;38.81;101172.44;6161616;23;20510;-91
2023/06/09 02:23:20;;;;;;;34.30;18.20;;;;;;;39.41;38.37;101164.63;6160180;23;20388;-90
2023/06/09 02:25:49;;;;;;;28.27;15.73;;;;;;;39.40;38.68;101170.34;6184182;23;20451;-89
2023/06/09 02:28:18;;;;;;;24.70;17.50;;;;;;;39.30;38.20;101159.75;6159736;23;20480;-90
2023/06/09 02:30:48;;;;;;;22.97;17.40;;;;;;;39.26;38.31;101147.91;6182011;23;20381;-90
2023/06/09 02:33:15;;;;;;;29.80;16.03;;;;;;;39.38;38.39;101159.00;6184587;23;20411;-91
2023/06/09 02:35:46;;;;;;;23.07;16.33;;;;;;;39.27;38.08;101161.16;6184676;23;20372;-90
2023/06/09 02:38:13;;;;;;;30.73;15.70;;;;;;;39.22;37.93;101155.84;6184567;23;20380;-90
2023/06/09 02:40:43;;;;;;;30.17;14.60;;;;;;;39.25;38.22;101170.72;6183301;23;20424;-90
2023/06/09 02:43:09;;;;;;;27.97;15.10;;;;;;;39.18;37.90;101163.03;6180185;23;20408;-90
2023/06/09 02:45:36;;;;;;;20.53;14.70;;;;;;;39.18;37.94;101179.31;6183523;23;20876;-90
2023/06/09 02:48:02;;;;;;;25.90;14.43;;;;;;;39.17;37.70;101174.97;6183706;23;20411;-91
2023/06/09 02:50:28;;;;;;;25.20;15.17;;;;;;;39.22;37.94;101193.84;6183807;23;20434;-89
2023/06/09 02:52:56;;;;;;;24.33;15.40;;;;;;;39.16;37.97;101185.00;6183466;23;20404;-91
2023/06/09 02:55:22;;;;;;;42.60;31.23;;;;;;;39.18;38.24;101196.38;6184156;23;20393;-90
2023/06/09 02:57:50;;;;;;;45.40;28.27;;;;;;;39.17;37.96;101186.63;6185683;23;20376;-92
2023/06/09 03:00:20;;;;;;;40.17;25.87;;;;;;;39.12;38.36;101183.22;6184473;23;20946;-92
2023/06/09 03:02:46;;;;;;;31.93;21.10;;;;;;;39.19;38.15;101186.31;6134243;23;20403;-91
2023/06/09 03:05:12;;;;;;;26.60;17.97;;;;;;;39.21;38.33;101187.59;6184004;23;20388;-91
2023/06/09 03:07:38;;;;;;;23.83;15.53;;;;;;;39.21;37.99;101186.81;6184720;23;20387;-91
2023/06/09 03:10:05;;;;;;;20.33;14.27;;;;;;;39.22;37.95;101194.63;6185746;23;20398;-91
2023/06/09 03:12:31;;;;;;;26.60;14.70;;;;;;;39.19;37.89;101184.41;6183544;23;20442;-89
2023/06/09 03:14:56;;;;;;;25.00;14.80;;;;;;;39.19;38.18;101176.28;6183260;23;20495;-90
2023/06/09 03:17:22;;;;;;;20.50;11.93;;;;;;;39.16;37.91;101178.78;6183725;23;20475;-89
2023/06/09 03:19:48;;;;;;;26.57;13.77;;;;;;;39.16;38.02;101184.22;6183739;23;20280;-90
2023/06/09 03:22:17;;;;;;;18.80;12.20;;;;;;;39.13;38.38;101182.91;6183783;23;20185;-93
2023/06/09 03:24:45;;;;;;;20.63;11.47;;;;;;;39.12;38.49;101173.16;6184561;23;20400;-93
2023/06/09 03:27:30;;;;;;;20.20;12.20;;;;;;;39.17;37.90;101174.97;6181719;23;20829;-91
2023/06/09 03:30:09;;;;;;;18.50;14.00;;;;;;;39.09;38.26;101162.91;6182536;23;20408;-89
2023/06/09 03:32:36;;;;;;;21.90;11.87;;;;;;;39.13;38.07;101163.91;6185543;23;20383;-92
2023/06/09 03:35:05;;;;;;;20.57;10.83;;;;;;;39.10;38.32;101159.09;6186527;23;20396;-92
2023/06/09 03:37:31;;;;;;;18.40;11.97;;;;;;;39.22;38.22;101172.94;6185466;23;20435;-91
2023/06/09 03:39:57;;;;;;;36.67;23.87;;;;;;;39.22;37.92;101172.13;6184784;23;20423;-89
2023/06/09 03:42:29;;;;;;;40.50;25.20;;;;;;;39.12;38.49;101166.94;6185857;23;20167;-88
2023/06/09 03:44:58;;;;;;;27.00;18.80;;;;;;;39.22;38.32;101170.22;6186075;23;20404;-93
2023/06/09 03:47:25;;;;;;;24.50;14.00;;;;;;;39.21;38.29;101171.31;6186484;23;20391;-93
2023/06/09 03:49:51;;;;;;;21.90;14.03;;;;;;;39.24;38.03;101169.94;6186113;23;20412;-91
2023/06/09 03:52:17;;;;;;;26.03;14.30;;;;;;;39.22;37.87;101161.28;6185809;23;20475;-92
2023/06/09 03:54:43;;;;;;;25.10;14.03;;;;;;;39.20;38.40;101158.06;6186201;23;20436;-91
2023/06/09 03:57:10;;;;;;;25.70;13.53;;;;;;;39.23;37.97;101157.47;6185780;23;20442;-90
2023/06/09 03:59:36;;;;;;;19.30;12.33;;;;;;;39.22;38.08;101167.50;6185586;23;20641;-89
2023/06/09 04:02:02;;;;;;;21.60;13.97;;;;;;;39.17;38.01;101158.72;6185895;23;20446;-88
2023/06/09 04:04:31;;;;;;;20.73;14.10;;;;;;;39.19;38.18;101173.56;6185766;23;20283;-90
2023/06/09 04:06:59;;;;;;;17.60;12.47;;;;;;;39.14;38.23;101162.78;6184635;23;20392;-93
2023/06/09 04:09:26;;;;;;;31.37;13.50;;;;;;;39.13;38.22;101163.09;6186414;23;20391;-93
2023/06/09 04:11:53;;;;;;;24.03;13.93;;;;;;;39.16;38.25;101167.94;6185060;23;20411;-93
2023/06/09 04:14:22;;;;;;;22.47;13.80;;;;;;;39.17;38.29;101170.34;6184448;23;20896;-93
2023/06/09 04:16:48;;;;;;;23.00;14.50;;;;;;;39.14;38.07;101168.22;6185447;23;20455;-91
2023/06/09 04:19:14;;;;;;;25.30;14.73;;;;;;;39.16;38.32;101168.72;6185461;23;20392;-91
2023/06/09 04:21:40;;;;;;;20.70;14.50;;;;;;;39.12;38.44;101173.16;6185866;23;20553;-91
2023/06/09 04:24:08;;;;;;;32.07;14.80;;;;;;;39.14;38.20;101165.50;6185417;23;20384;-90
2023/06/09 04:26:38;;;;;;;20.93;13.73;;;;;;;39.15;38.44;101171.72;6185115;23;20396;-88
2023/06/09 04:29:09;;;;;;;24.97;15.50;;;;;;;39.10;38.33;101152.84;6185300;23;20380;-90
2023/06/09 04:31:58;;;;;;;17.80;15.10;;;;;;;39.09;38.16;101165.63;6160460;23;20416;-90
2023/06/09 04:34:26;;;;;;;35.83;23.37;;;;;;;39.18;38.28;101174.66;6183935;23;20384;-91
2023/06/09 04:36:59;;;;;;;25.90;20.30;;;;;;;39.19;38.54;101172.75;6183607;23;20389;-94
2023/06/09 04:39:28;;;;;;;25.60;17.90;;;;;;;39.13;38.68;101163.09;6183146;23;20392;-93
2023/06/09 04:41:54;;;;;;;21.97;15.07;;;;;;;39.19;38.67;101175.47;6185527;23;20388;-91
2023/06/09 04:44:21;;;;;;;26.10;18.37;;;;;;;39.18;38.58;101174.66;6185158;23;20842;-91
2023/06/09 04:46:49;;;;;;;30.67;16.73;;;;;;;39.20;38.91;101183.28;6187221;23;20749;-91
2023/06/09 04:49:16;;;;;;;19.47;15.07;;;;;;;39.14;38.73;101172.84;6187072;23;20762;-89
2023/06/09 04:51:48;;;;;;;30.80;15.90;;;;;;;39.03;38.76;101155.19;6184698;23;20867;-89
2023/06/09 04:54:16;;;;;;;30.43;15.27;;;;;;;39.19;38.68;101183.59;6184980;23;20388;-90
2023/06/09 04:56:43;;;;;;;32.23;18.70;;;;;;;39.11;39.03;101166.13;6185244;23;20766;-90
2023/06/09 04:59:12;;;;;;;28.77;18.00;;;;;;;39.13;38.83;101169.31;6185279;23;20443;-90
2023/06/09 05:01:39;;;;;;;36.83;18.03;;;;;;;39.13;39.02;101177.47;6184719;23;20483;-89
2023/06/09 05:04:08;;;;;;;26.80;18.07;;;;;;;39.16;39.04;101179.59;6160218;23;20453;-90
2023/06/09 05:06:37;;;;;;;26.90;18.30;;;;;;;39.11;38.90;101176.19;6184320;23;20395;-91
2023/06/09 05:09:06;;;;;;;27.07;16.60;;;;;;;39.09;39.17;101162.09;6184748;23;20380;-90
2023/06/09 05:11:34;;;;;;;28.33;19.47;;;;;;;39.13;38.79;101169.31;6184946;23;20407;-91
2023/06/09 05:14:04;;;;;;;30.83;20.70;;;;;;;39.15;39.06;101179.88;6158165;23;20475;-91
2023/06/09 05:16:30;;;;;;;33.63;22.00;;;;;;;39.10;39.15;101175.38;6136773;23;20392;-90
2023/06/09 05:18:56;;;;;;;31.00;22.57;;;;;;;39.11;38.99;101176.97;6184113;23;20392;-91
2023/06/09 05:21:25;;;;;;;33.37;22.60;;;;;;;39.10;38.57;101174.56;6184196;23;20509;-90
2023/06/09 05:23:53;;;;;;;23.80;19.90;;;;;;;39.15;38.86;101188.00;6185116;23;20399;-90
2023/06/09 05:26:21;;;;;;;36.83;23.47;;;;;;;39.07;39.02;101180.59;6184086;23;20380;-92
2023/06/09 05:28:48;;;;;;;37.83;23.50;;;;;;;39.05;39.25;101174.69;6186605;23;20842;-90
2023/06/09 05:31:15;;;;;;;29.83;23.60;;;;;;;39.03;39.21;101176.91;6184029;23;20504;-90
2023/06/09 05:33:42;;;;;;;38.00;28.40;;;;;;;39.15;38.92;101183.38;6186197;23;20455;-90
2023/06/09 05:36:12;;;;;;;44.07;30.70;;;;;;;39.14;38.88;101189.91;6184084;23;20430;-90
2023/06/09 05:38:43;;;;;;;38.90;24.57;;;;;;;39.00;38.94;101178.31;6195241;23;20399;-86
2023/06/09 05:41:21;;;;;;;46.00;27.47;;;;;;;39.08;39.12;101191.16;6196395;23;20943;-87
2023/06/09 05:46:55;;;;;;;40.73;28.57;;;;;;;39.09;38.96;101190.03;6187081;23;20415;-91
2023/06/09 05:49:27;;;;;;;43.00;27.30;;;;;;;39.11;38.73;101190.53;6183881;23;20391;-93
2023/06/09 05:52:15;;;;;;;31.17;27.00;;;;;;;39.06;39.20;101185.22;6185704;23;20456;-92
2023/06/09 05:54:48;;;;;;;45.07;28.27;;;;;;;39.23;38.84;101209.84;6184528;23;20403;-91
2023/06/09 05:57:29;;;;;;;32.80;22.90;;;;;;;39.09;38.89;101187.31;6186222;23;20392;-89
2023/06/09 05:59:57;;;;;;;36.50;26.20;;;;;;;39.14;38.90;101200.78;6160306;23;20452;-87
2023/06/09 06:02:24;;;;;;;40.37;25.80;;;;;;;39.17;38.75;101219.19;6182933;23;20795;-83
2023/06/09 06:04:50;;;;;;;33.17;24.87;;;;;;;39.13;38.79;101220.06;6184015;23;20430;-86
2023/06/09 06:07:18;;;;;;;44.07;26.13;;;;;;;39.15;38.55;101221.38;6182510;23;20463;-85
2023/06/09 06:09:44;;;;;;;35.37;25.27;;;;;;;39.05;39.09;101205.34;6183699;23;20714;-85
2023/06/09 06:12:13;;;;;;;39.27;27.10;;;;;;;39.14;39.19;101219.75;6187464;23;20443;-82
2023/06/09 06:14:42;;;;;;;41.00;30.60;;;;;;;39.16;39.06;101212.16;6193140;23;20196;-84
2023/06/09 06:17:14;;;;;;;32.43;25.87;;;;;;;39.12;38.58;101205.72;6196727;23;20404;-86
2023/06/09 06:19:41;;;;;;;32.47;25.93;;;;;;;39.10;38.62;101212.53;6181605;23;20439;-81
2023/06/09 06:22:06;;;;;;;34.23;27.60;;;;;;;39.14;38.87;101229.81;6183888;23;20452;-86
2023/06/09 06:24:32;;;;;;;43.10;29.20;;;;;;;39.21;38.51;101230.22;6183511;23;20152;-89
2023/06/09 06:26:58;;;;;;;29.97;26.03;;;;;;;39.24;38.92;101226.91;6184254;23;20399;-85
2023/06/09 06:29:25;;;;;;;34.27;28.10;;;;;;;39.28;38.78;101235.22;6182744;23;20645;-88
2023/06/09 06:31:51;;;;;;;45.47;32.03;;;;;;;39.34;38.67;101245.66;6184096;23;20236;-88
2023/06/09 06:34:17;;;;;;;41.87;36.20;;;;;;;39.29;38.99;101243.09;6183107;23;20474;-87
2023/06/09 06:36:43;;;;;;;49.70;36.60;;;;;;;39.28;38.87;101249.59;6183681;23;20418;-85
2023/06/09 06:39:11;;;;;;;53.43;40.47;;;;;;;39.29;39.00;101248.50;6185940;23;20774;-94
2023/06/09 06:41:37;;;;;;;58.30;48.00;;;;;;;39.38;38.61;101256.72;6185133;23;20446;-95
2023/06/09 06:44:04;;;;;;;63.67;54.40;;;;;;;39.34;38.59;101244.84;6186456;23;20392;-94
2023/06/09 06:46:31;;;;;;;55.40;44.37;;;;;;;39.26;38.82;101243.69;6188882;23;20392;-94
2023/06/09 06:48:57;;;;;;;53.70;44.67;;;;;;;39.40;38.94;101262.63;6189885;23;20384;-94
2023/06/09 06:51:25;;;;;;;51.17;40.77;;;;;;;39.33;38.77;101244.06;6190141;23;20399;-94
2023/06/09 06:53:51;;;;;;;41.03;33.43;;;;;;;39.31;38.93;101238.16;6192377;23;20407;-93
2023/06/09 06:56:21;;;;;;;40.23;31.23;;;;;;;39.41;38.84;101253.38;6193564;23;20380;-94
2023/06/09 06:58:47;;;;;;;42.90;31.13;;;;;;;39.36;38.58;101248.09;6193931;23;20438;-93
2023/06/09 07:01:22;;;;;;;41.47;29.57;;;;;;;39.38;38.54;101254.00;6167054;23;20443;-92
2023/06/09 07:03:50;;;;;;;36.53;29.90;;;;;;;39.39;38.56;101253.69;6169239;23;20418;-91
2023/06/09 07:06:19;;;;;;;39.53;29.97;;;;;;;39.49;38.80;101258.09;6192945;23;20442;-90
2023/06/09 07:08:45;;;;;;;41.33;35.50;;;;;;;39.46;38.99;101259.50;6190667;23;20837;-93
2023/06/09 07:11:12;;;;;;;48.87;35.00;;;;;;;39.41;38.84;101248.78;6190231;23;20903;-94
2023/06/09 07:13:38;;;;;;;50.20;40.70;;;;;;;39.41;39.07;101242.50;6191582;23;20440;-94
2023/06/09 07:16:06;;;;;;;54.13;44.97;;;;;;;39.54;38.85;101260.69;6190554;23;20415;-93
2023/06/09 07:18:32;;;;;;;52.13;44.10;;;;;;;39.45;39.08;101251.66;6191263;23;20388;-92
2023/06/09 07:20:59;;;;;;;58.27;49.23;;;;;;;39.49;38.93;101260.81;6190129;23;20829;-93
2023/06/09 07:23:25;;;;;;;57.57;46.63;;;;;;;39.57;39.33;101270.91;6186526;23;20388;-91
2023/06/09 07:25:51;;;;;;;53.07;45.80;;;;;;;39.59;39.04;101279.53;6187782;23;20446;-90
2023/06/09 07:28:17;;;;;;;56.73;48.27;;;;;;;39.62;38.85;101286.31;6187262;23;20419;-91
2023/06/09 07:30:45;;;;;;;57.87;50.23;;;;;;;39.50;38.92;101268.63;6186743;23;20463;-92
2023/06/09 07:33:13;;;;;;;66.97;55.57;;;;;;;39.57;38.76;101278.25;6189742;23;20499;-91
2023/06/09 07:35:42;;;;;;;68.97;55.63;;;;;;;39.50;38.87;101281.41;6189434;23;20427;-89
2023/06/09 07:38:11;;;;;;;53.13;47.13;;;;;;;39.52;38.61;101273.75;6196336;23;20415;-88
2023/06/09 07:40:38;;;;;;;44.63;36.90;;;;;;;39.54;38.38;101285.13;6172110;23;20435;-89
2023/06/09 07:43:06;;;;;;;44.87;31.43;;;;;;;39.60;38.74;101286.63;6197214;23;20380;-89
2023/06/09 07:45:35;;;;;;;33.57;24.80;;;;;;;39.64;38.90;101298.47;6191687;23;20392;-88
2023/06/09 07:48:09;;;;;;;34.80;25.90;;;;;;;39.56;38.66;101290.22;6185866;23;20863;-89
2023/06/09 07:50:37;;;;;;;35.40;24.53;;;;;;;39.73;38.97;101312.94;6182920;23;20914;-91
2023/06/09 07:53:05;;;;;;;38.47;26.07;;;;;;;39.84;39.05;101315.38;6163472;23;20392;-90
2023/06/09 07:55:48;;;;;;;32.53;25.00;;;;;;;39.72;38.65;101305.09;6162362;23;20392;-87
2023/06/09 07:58:17;;;;;;;35.60;23.90;;;;;;;39.89;38.55;101331.56;6188784;23;20376;-91
2023/06/09 08:00:48;;;;;;;33.27;23.40;;;;;;;39.72;38.35;101310.53;6187406;23;20435;-87
2023/06/09 08:03:17;;;;;;;44.13;26.30;;;;;;;39.86;38.62;101321.31;6193645;23;20734;-86
2023/06/09 08:05:46;;;;;;;35.37;26.60;;;;;;;39.79;38.44;101318.25;6191493;23;20383;-91
2023/06/09 08:08:15;;;;;;;30.30;24.03;;;;;;;39.93;38.34;101332.56;6183075;23;20395;-89
2023/06/09 08:10:41;;;;;;;40.53;29.60;;;;;;;39.86;38.65;101318.63;6185520;23;20400;-91
2023/06/09 08:13:08;;;;;;;49.23;34.47;;;;;;;39.93;38.69;101327.13;6182681;23;20435;-94
2023/06/09 08:15:36;;;;;;;41.50;28.50;;;;;;;40.00;38.56;101343.78;6184630;23;20404;-92
2023/06/09 08:18:06;;;;;;;31.80;26.53;;;;;;;40.02;39.22;101341.56;6185504;23;20386;-93
2023/06/09 08:20:36;;;;;;;38.27;29.83;;;;;;;40.03;38.63;101345.91;6187219;23;20423;-91
2023/06/09 08:23:07;;;;;;;31.67;24.33;;;;;;;39.90;38.62;101317.69;6185470;23;20408;-91
2023/06/09 08:25:35;;;;;;;28.83;21.87;;;;;;;40.01;38.63;101338.03;6162044;23;20388;-91
2023/06/09 08:28:01;;;;;;;30.90;20.10;;;;;;;40.11;38.77;101350.63;6186451;23;20415;-89
2023/06/09 08:30:27;;;;;;;26.77;21.30;;;;;;;40.15;38.65;101354.31;6184379;23;20404;-81
2023/06/09 08:32:53;;;;;;;26.73;22.77;;;;;;;40.19;38.81;101349.84;6184356;23;20470;-80
2023/06/09 08:35:21;;;;;;;25.53;20.77;;;;;;;40.20;38.16;101358.81;6184363;23;20388;-83
2023/06/09 08:37:47;;;;;;;27.33;20.57;;;;;;;40.15;38.41;101357.03;6184391;23;20726;-80
2023/06/09 08:40:13;;;;;;;31.93;19.60;;;;;;;40.14;38.75;101347.25;6184059;23;20430;-84
2023/06/09 08:42:40;;;;;;;24.33;17.60;;;;;;;40.21;38.30;101355.81;6184254;23;20848;-82
2023/06/09 08:45:07;;;;;;;20.30;14.80;;;;;;;40.23;38.02;101359.00;6184239;23;20459;-81
2023/06/09 08:47:33;;;;;;;20.47;13.50;;;;;;;40.29;38.32;101352.31;6184642;23;20383;-82
2023/06/09 08:50:02;;;;;;;27.63;13.50;;;;;;;40.32;38.04;101355.53;6184132;23;20388;-83
2023/06/09 08:52:29;;;;;;;25.77;14.50;;;;;;;40.26;37.95;101347.50;6184441;23;20452;-84
2023/06/09 08:54:59;;;;;;;18.63;11.63;;;;;;;40.33;37.13;101348.97;6184165;23;20536;-82
2023/06/09 08:57:26;;;;;;;20.73;10.37;;;;;;;40.34;37.82;101345.97;6184283;23;20389;-81
2023/06/09 08:59:53;;;;;;;17.10;8.83;;;;;;;40.40;37.19;101358.31;6184067;23;20447;-82
2023/06/09 09:02:19;;;;;;;15.20;7.50;;;;;;;40.39;36.96;101355.88;6183865;23;20384;-80
2023/06/09 09:04:46;;;;;;;15.97;10.10;;;;;;;40.41;37.20;101351.75;6184043;23;20495;-84
2023/06/09 09:07:13;;;;;;;20.07;10.90;;;;;;;40.40;37.33;101342.00;6184445;23;20744;-83
2023/06/09 09:09:48;;;;;;;14.90;8.70;;;;;;;40.49;37.33;101351.00;6183934;23;20391;-84
2023/06/09 09:12:14;;;;;;;14.50;7.67;;;;;;;40.44;36.99;101348.41;6184073;23;20502;-82
2023/06/09 09:14:43;;;;;;;17.30;7.10;;;;;;;40.54;36.97;101355.53;6183670;23;20825;-82
2023/06/09 09:17:13;;;;;;;17.47;9.37;;;;;;;40.58;37.19;101353.78;6183949;23;20252;-86
2023/06/09 09:19:45;;;;;;;15.00;8.07;;;;;;;40.57;37.02;101346.72;6184260;23;20436;-84
2023/06/09 09:22:13;;;;;;;13.20;7.90;;;;;;;40.69;37.32;101359.72;6184393;23;20385;-84
2023/06/09 09:24:44;;;;;;;22.80;9.00;;;;;;;40.68;37.34;101355.41;6184216;23;20459;-83
2023/06/09 09:27:19;;;;;;;17.60;9.13;;;;;;;40.66;37.09;101355.75;6185538;23;20384;-88
2023/06/09 09:29:46;;;;;;;11.17;7.30;;;;;;;40.73;36.73;101366.97;6183992;23;20466;-85
2023/06/09 09:32:13;;;;;;;16.10;9.47;;;;;;;40.72;37.35;101365.38;6185784;23;20411;-86
2023/06/09 09:34:46;;;;;;;16.20;7.40;;;;;;;40.75;37.02;101364.72;6184051;23;20385;-87
2023/06/09 09:37:16;;;;;;;25.00;9.17;;;;;;;40.73;37.48;101366.97;6187039;23;20434;-90
2023/06/09 09:39:52;;;;;;;14.70;8.60;;;;;;;40.72;36.92;101370.00;6182045;23;20436;-90
2023/06/09 09:42:20;;;;;;;13.07;8.27;;;;;;;40.72;37.52;101359.13;6185307;23;20423;-90
2023/06/09 09:44:51;;;;;;;14.50;8.30;;;;;;;40.59;37.33;101335.56;6184720;23;20393;-90
2023/06/09 09:47:19;;;;;;;18.43;8.30;;;;;;;40.69;37.71;101368.69;6182770;23;20391;-89
2023/06/09 09:49:55;;;;;;;97.40;92.70;;;;;;;40.75;37.28;101363.91;6184569;23;20412;-90
2023/06/09 09:52:29;;;;;;;103.87;98.87;;;;;;;40.66;37.40;101352.22;6186026;23;20482;-91
2023/06/09 09:55:03;;;;;;;100.10;95.27;;;;;;;40.67;37.63;101351.91;6185077;23;20416;-88
2023/06/09 09:57:33;;;;;;;14.10;9.50;;;;;;;40.64;37.43;101349.00;6184554;23;20399;-90
2023/06/09 10:00:03;;;;;;;14.10;8.33;;;;;;;40.73;37.86;101363.44;6184274;23;20439;-89
2023/06/09 10:06:18;;;;;;;15.43;9.97;;;;;;;40.79;37.37;101354.81;6186027;23;20788;-89
2023/06/09 10:08:45;;;;;;;25.03;10.10;;;;;;;40.78;37.35;101350.50;6184577;23;20389;-91
2023/06/09 10:11:12;;;;;;;12.63;8.90;;;;;;;40.87;37.41;101349.72;6184121;23;20446;-89
2023/06/09 10:13:39;;;;;;;22.33;12.03;;;;;;;40.85;37.92;101354.69;6184033;23;20462;-89
2023/06/09 10:16:08;;;;;;;14.73;9.27;;;;;;;40.77;37.18;101348.09;6159626;23;20416;-89
2023/06/09 10:18:36;;;;;;;13.30;9.03;;;;;;;40.81;37.26;101355.31;6184029;23;20872;-87
2023/06/09 10:21:02;;;;;;;14.17;7.87;;;;;;;40.80;37.26;101336.59;6184103;23;20467;-88
2023/06/09 10:23:28;;;;;;;20.93;9.77;;;;;;;40.84;37.84;101350.38;6183608;23;20380;-90
2023/06/09 10:25:55;;;;;;;19.57;9.83;;;;;;;40.84;37.67;101345.72;6183691;23;20388;-88
2023/06/09 10:28:21;;;;;;;18.53;10.97;;;;;;;40.92;37.58;101342.25;6184243;23;20458;-89
2023/06/09 10:30:50;;;;;;;19.60;10.83;;;;;;;40.98;37.61;101351.06;6183571;23;20404;-88
2023/06/09 10:33:33;;;;;;;17.53;10.33;;;;;;;40.97;37.76;101339.38;6183896;23;20384;-88
2023/06/09 10:36:09;;;;;;;28.53;11.00;;;;;;;41.02;37.33;101343.91;6183936;23;20386;-88
2023/06/09 10:38:47;;;;;;;18.70;9.90;;;;;;;41.08;37.84;101345.34;6184198;23;20384;-87
2023/06/09 10:41:37;;;;;;;16.80;9.50;;;;;;;41.01;37.79;101351.25;6183599;23;20427;-89
2023/06/09 10:44:18;;;;;;;18.53;9.93;;;;;;;41.13;37.59;101347.09;6177697;23;20389;-87
2023/06/09 10:46:46;;;;;;;16.53;11.50;;;;;;;41.12;37.49;101340.84;6184397;23;20420;-90
2023/06/09 10:49:36;;;;;;;18.67;10.83;;;;;;;41.12;37.32;101340.06;6183801;23;20408;-85
2023/06/09 10:52:08;;;;;;;15.67;10.03;;;;;;;41.17;37.60;101338.00;6183907;23;20951;-87
2023/06/09 10:54:35;;;;;;;14.50;8.23;;;;;;;41.03;37.17;101324.53;6182969;23;20399;-84
2023/06/09 10:57:06;;;;;;;21.30;10.93;;;;;;;40.96;37.28;101332.34;6183396;23;20387;-87
2023/06/09 10:59:32;;;;;;;13.10;7.40;;;;;;;41.15;37.24;101328.56;6182333;23;20380;-89
2023/06/09 11:02:01;;;;;;;8.87;5.17;;;;;;;41.14;36.81;101325.03;6183845;23;20471;-87
2023/06/09 11:05:00;;;;;;;13.30;4.80;;;;;;;41.20;36.29;101328.41;6183530;23;20462;-86
2023/06/09 11:07:31;;;;;;;11.43;4.00;;;;;;;41.24;36.11;101321.97;6184768;23;20372;-87
2023/06/09 11:09:57;;;;;;;15.87;8.17;;;;;;;41.15;35.78;101318.47;6182850;23;20376;-90
2023/06/09 11:12:50;;;;;;;25.17;13.20;;;;;;;41.22;35.66;101310.63;6184346;23;20391;-92
2023/06/09 11:15:16;;;;;;;66.33;52.13;;;;;;;41.24;35.78;101294.75;6184037;23;20168;-82
2023/06/09 11:17:45;;;;;;;24.30;18.23;;;;;;;41.23;35.88;101298.59;6183059;23;20463;-86
2023/06/09 11:20:14;;;;;;;24.57;11.23;;;;;;;41.22;35.08;101294.28;6183718;23;20431;-86
2023/06/09 11:22:50;;;;;;;25.33;15.00;;;;;;;41.28;35.48;101293.00;6183507;23;20423;-86
2023/06/09 11:25:18;;;;;;;22.53;10.33;;;;;;;41.35;35.29;101289.84;6183614;23;20848;-88
2023/06/09 11:28:00;;;;;;;31.27;17.20;;;;;;;41.39;35.52;101296.25;6183811;23;20392;-89
2023/06/09 11:30:30;;;;;;;21.03;13.67;;;;;;;41.40;35.19;101286.97;6185202;23;20857;-88